createdAt,value
2018-07-31T00:00:20.497Z,84.25
2018-07-31T00:00:51.668Z,84.72
2018-07-31T00:01:22.876Z,84.35
2018-07-31T00:01:53.992Z,84.20
2018-07-31T00:02:25.120Z,83.85
2018-07-31T00:02:56.282Z,84.64
2018-07-31T00:03:27.436Z,84.81
2018-07-31T00:03:58.620Z,84.65
2018-07-31T00:04:29.789Z,84.02
2018-07-31T00:05:00.979Z,84.00
2018-07-31T00:05:32.218Z,83.50
2018-07-31T00:06:03.380Z,83.45
2018-07-31T00:06:34.494Z,84.12
2018-07-31T00:07:05.610Z,83.98
2018-07-31T00:07:36.788Z,83.52
2018-07-31T00:08:07.970Z,84.17
2018-07-31T00:08:39.093Z,83.66
2018-07-31T00:09:10.248Z,83.60
2018-07-31T00:09:41.415Z,84.16
2018-07-31T00:10:12.596Z,83.59
2018-07-31T00:10:43.776Z,83.55
2018-07-31T00:11:14.961Z,84.54
2018-07-31T00:11:46.191Z,84.39
2018-07-31T00:12:17.413Z,83.76
2018-07-31T00:12:48.584Z,84.18
2018-07-31T00:13:19.707Z,83.15
2018-07-31T00:13:50.825Z,83.77
2018-07-31T00:14:21.946Z,83.77
2018-07-31T00:14:53.108Z,83.52
2018-07-31T00:15:24.276Z,83.39
2018-07-31T00:15:55.461Z,84.19
2018-07-31T00:16:26.624Z,84.03
2018-07-31T00:16:57.805Z,84.70
2018-07-31T00:17:29.079Z,84.59
2018-07-31T00:18:00.325Z,83.43
2018-07-31T00:18:31.452Z,83.14
2018-07-31T00:19:02.625Z,83.17
2018-07-31T00:19:33.735Z,83.42
2018-07-31T00:20:05.005Z,82.63
2018-07-31T00:20:36.185Z,82.50
2018-07-31T00:21:07.356Z,82.50
2018-07-31T00:21:38.586Z,83.15
2018-07-31T00:22:09.759Z,83.80
2018-07-31T00:22:40.872Z,83.59
2018-07-31T00:23:12.072Z,83.78
2018-07-31T00:23:43.193Z,83.50
2018-07-31T00:24:14.360Z,83.26
2018-07-31T00:24:45.581Z,84.04
2018-07-31T00:25:16.759Z,83.32
2018-07-31T00:25:48.009Z,83.77
2018-07-31T00:26:19.187Z,82.83
2018-07-31T00:26:50.417Z,82.96
2018-07-31T00:27:21.639Z,83.11
2018-07-31T00:27:52.759Z,83.31
2018-07-31T00:28:23.908Z,84.42
2018-07-31T00:28:55.090Z,83.90
2018-07-31T00:29:26.261Z,84.22
2018-07-31T00:29:57.440Z,84.11
2018-07-31T00:30:28.561Z,84.59
2018-07-31T00:30:59.820Z,84.26
2018-07-31T00:31:30.948Z,83.82
2018-07-31T00:32:02.105Z,84.31
2018-07-31T00:32:33.226Z,84.10
2018-07-31T00:33:04.339Z,84.18
2018-07-31T00:33:35.588Z,83.48
2018-07-31T00:34:06.711Z,83.70
2018-07-31T00:34:37.831Z,84.45
2018-07-31T00:35:08.997Z,83.51
2018-07-31T00:35:40.196Z,83.47
2018-07-31T00:36:11.384Z,83.55
2018-07-31T00:36:42.489Z,83.89
2018-07-31T00:37:13.752Z,83.61
2018-07-31T00:37:44.943Z,83.77
2018-07-31T00:38:16.147Z,84.04
2018-07-31T00:38:47.306Z,83.42
2018-07-31T00:39:18.423Z,84.46
2018-07-31T00:39:49.625Z,84.66
2018-07-31T00:40:20.744Z,83.94
2018-07-31T00:40:51.965Z,84.00
2018-07-31T00:41:23.127Z,84.02
2018-07-31T00:41:54.353Z,84.75
2018-07-31T00:42:25.483Z,84.26
2018-07-31T00:42:56.653Z,84.09
2018-07-31T00:43:27.829Z,83.77
2018-07-31T00:43:59.028Z,84.51
2018-07-31T00:44:30.204Z,84.20
2018-07-31T00:45:01.381Z,83.65
2018-07-31T00:45:32.524Z,84.20
2018-07-31T00:46:03.688Z,84.06
2018-07-31T00:46:34.811Z,83.22
2018-07-31T00:47:05.957Z,83.46
2018-07-31T00:47:37.099Z,83.86
2018-07-31T00:48:08.310Z,83.74
2018-07-31T00:48:39.431Z,84.56
2018-07-31T00:49:10.624Z,84.05
2018-07-31T00:49:41.792Z,84.26
2018-07-31T00:50:12.952Z,83.92
2018-07-31T00:50:44.072Z,84.67
2018-07-31T00:51:15.180Z,84.22
2018-07-31T00:51:46.418Z,83.78
2018-07-31T00:52:17.588Z,83.86
2018-07-31T00:52:48.916Z,84.35
2018-07-31T00:53:20.123Z,84.48
2018-07-31T00:53:51.239Z,83.77
2018-07-31T00:54:22.471Z,84.74
2018-07-31T00:54:53.667Z,84.68
2018-07-31T00:55:24.932Z,83.95
2018-07-31T00:55:56.055Z,83.70
2018-07-31T00:56:27.231Z,84.01
2018-07-31T00:56:58.357Z,84.11
2018-07-31T00:57:29.551Z,84.41
2018-07-31T00:58:00.728Z,84.46
2018-07-31T00:58:31.875Z,84.47
2018-07-31T00:59:03.001Z,84.23
2018-07-31T00:59:34.180Z,84.41
2018-07-31T01:00:05.352Z,84.06
2018-07-31T01:00:36.561Z,84.14
2018-07-31T01:01:07.745Z,84.88
2018-07-31T01:01:38.935Z,84.49
2018-07-31T01:02:10.144Z,84.17
2018-07-31T01:02:41.263Z,84.25
2018-07-31T01:03:12.583Z,84.78
2018-07-31T01:03:43.706Z,84.76
2018-07-31T01:04:14.827Z,84.93
2018-07-31T01:04:45.997Z,84.75
2018-07-31T01:05:17.230Z,84.64
2018-07-31T01:05:48.621Z,85.54
2018-07-31T01:06:19.848Z,85.47
2018-07-31T01:06:50.967Z,85.91
2018-07-31T01:07:22.184Z,84.99
2018-07-31T01:07:53.344Z,84.81
2018-07-31T01:08:24.613Z,84.86
2018-07-31T01:08:55.737Z,84.88
2018-07-31T01:09:27.097Z,84.92
2018-07-31T01:09:58.309Z,85.48
2018-07-31T01:10:29.572Z,86.02
2018-07-31T01:11:00.813Z,85.86
2018-07-31T01:11:31.911Z,86.07
2018-07-31T01:12:03.096Z,85.36
2018-07-31T01:12:34.220Z,85.79
2018-07-31T01:13:05.386Z,85.92
2018-07-31T01:13:36.552Z,86.15
2018-07-31T01:14:07.725Z,85.40
2018-07-31T01:14:39.009Z,85.80
2018-07-31T01:15:10.166Z,85.72
2018-07-31T01:15:41.340Z,85.90
2018-07-31T01:16:12.459Z,86.01
2018-07-31T01:16:43.759Z,85.47
2018-07-31T01:17:14.956Z,85.32
2018-07-31T01:17:46.168Z,85.34
2018-07-31T01:18:17.332Z,85.58
2018-07-31T01:18:48.515Z,85.36
2018-07-31T01:19:19.714Z,85.55
2018-07-31T01:19:50.836Z,85.77
2018-07-31T01:20:22.102Z,86.40
2018-07-31T01:20:53.283Z,86.63
2018-07-31T01:21:24.448Z,86.31
2018-07-31T01:21:55.569Z,86.73
2018-07-31T01:22:26.682Z,86.57
2018-07-31T01:22:57.873Z,87.35
2018-07-31T01:23:29.084Z,86.93
2018-07-31T01:24:00.198Z,87.32
2018-07-31T01:24:31.313Z,86.87
2018-07-31T01:25:02.476Z,86.95
2018-07-31T01:25:33.674Z,87.31
2018-07-31T01:26:04.952Z,86.89
2018-07-31T01:26:36.068Z,86.49
2018-07-31T01:27:07.232Z,87.37
2018-07-31T01:27:38.350Z,87.55
2018-07-31T01:28:09.483Z,87.61
2018-07-31T01:28:40.594Z,86.87
2018-07-31T01:29:11.706Z,87.19
2018-07-31T01:29:42.823Z,87.26
2018-07-31T01:30:13.932Z,86.20
2018-07-31T01:30:45.152Z,86.04
2018-07-31T01:31:16.328Z,86.66
2018-07-31T01:31:47.582Z,86.26
2018-07-31T01:32:18.734Z,86.77
2018-07-31T01:32:50.018Z,85.88
2018-07-31T01:33:21.155Z,86.12
2018-07-31T01:33:52.347Z,85.72
2018-07-31T01:34:23.463Z,85.06
2018-07-31T01:34:54.623Z,85.78
2018-07-31T01:35:25.749Z,85.92
2018-07-31T01:35:56.960Z,85.30
2018-07-31T01:36:28.284Z,86.14
2018-07-31T01:36:59.568Z,86.15
2018-07-31T01:37:30.736Z,85.35
2018-07-31T01:38:02.045Z,85.92
2018-07-31T01:38:33.188Z,85.69
2018-07-31T01:39:04.408Z,84.76
2018-07-31T01:39:35.526Z,85.40
2018-07-31T01:40:06.704Z,85.35
2018-07-31T01:40:37.873Z,85.32
2018-07-31T01:41:09.064Z,85.99
2018-07-31T01:41:40.176Z,85.70
2018-07-31T01:42:11.456Z,85.38
2018-07-31T01:42:42.589Z,85.62
2018-07-31T01:43:13.753Z,85.34
2018-07-31T01:43:44.956Z,86.14
2018-07-31T01:44:16.120Z,85.54
2018-07-31T01:44:47.247Z,85.36
2018-07-31T01:45:18.380Z,85.84
2018-07-31T01:45:49.525Z,85.30
2018-07-31T01:46:20.635Z,86.53
2018-07-31T01:46:51.753Z,86.30
2018-07-31T01:47:22.915Z,85.57
2018-07-31T01:47:54.084Z,86.31
2018-07-31T01:48:25.296Z,85.71
2018-07-31T01:48:56.540Z,86.68
2018-07-31T01:49:27.663Z,86.77
2018-07-31T01:49:58.828Z,86.63
2018-07-31T01:50:30.000Z,85.79
2018-07-31T01:51:01.117Z,85.85
2018-07-31T01:51:32.452Z,86.45
2018-07-31T01:52:03.628Z,86.44
2018-07-31T01:52:34.787Z,85.38
2018-07-31T01:53:05.956Z,85.74
2018-07-31T01:53:37.141Z,85.59
2018-07-31T01:54:08.361Z,85.92
2018-07-31T01:54:39.487Z,85.74
2018-07-31T01:55:10.717Z,85.66
2018-07-31T01:55:41.879Z,85.73
2018-07-31T01:56:13.053Z,86.36
2018-07-31T01:56:44.235Z,86.11
2018-07-31T01:57:15.410Z,85.75
2018-07-31T01:57:46.592Z,86.08
2018-07-31T01:58:17.714Z,86.81
2018-07-31T01:58:48.931Z,86.33
2018-07-31T01:59:20.047Z,85.68
2018-07-31T01:59:51.191Z,85.77
2018-07-31T02:00:22.312Z,86.73
2018-07-31T02:00:53.480Z,86.19
2018-07-31T02:01:24.716Z,86.05
2018-07-31T02:01:55.835Z,87.08
2018-07-31T02:02:27.011Z,86.80
2018-07-31T02:02:58.316Z,86.56
2018-07-31T02:03:29.489Z,86.46
2018-07-31T02:04:00.691Z,86.00
2018-07-31T02:04:31.892Z,86.34
2018-07-31T02:05:03.059Z,85.93
2018-07-31T02:05:34.385Z,86.43
2018-07-31T02:06:05.564Z,85.88
2018-07-31T02:06:36.685Z,85.93
2018-07-31T02:07:07.994Z,86.09
2018-07-31T02:07:39.228Z,86.57
2018-07-31T02:08:10.460Z,85.86
2018-07-31T02:08:41.669Z,86.15
2018-07-31T02:09:12.792Z,86.56
2018-07-31T02:09:43.995Z,86.20
2018-07-31T02:10:15.121Z,86.11
2018-07-31T02:10:46.302Z,85.59
2018-07-31T02:11:17.441Z,85.37
2018-07-31T02:11:48.556Z,86.14
2018-07-31T02:12:19.740Z,86.16
2018-07-31T02:12:50.852Z,86.39
2018-07-31T02:13:22.064Z,86.60
2018-07-31T02:13:53.285Z,85.83
2018-07-31T02:14:24.476Z,85.86
2018-07-31T02:14:55.617Z,85.43
2018-07-31T02:15:26.739Z,85.18
2018-07-31T02:15:57.949Z,85.34
2018-07-31T02:16:29.075Z,86.51
2018-07-31T02:17:00.188Z,85.81
2018-07-31T02:17:31.364Z,85.87
2018-07-31T02:18:02.545Z,86.47
2018-07-31T02:18:33.818Z,85.89
2018-07-31T02:19:04.936Z,85.44
2018-07-31T02:19:36.152Z,86.18
2018-07-31T02:20:07.357Z,86.01
2018-07-31T02:20:38.569Z,86.14
2018-07-31T02:21:09.753Z,86.46
2018-07-31T02:21:40.859Z,85.30
2018-07-31T02:22:12.315Z,86.09
2018-07-31T02:22:43.552Z,86.16
2018-07-31T02:23:14.739Z,86.23
2018-07-31T02:23:45.903Z,86.45
2018-07-31T02:24:17.023Z,85.56
2018-07-31T02:24:48.181Z,85.65
2018-07-31T02:25:19.307Z,86.31
2018-07-31T02:25:50.443Z,85.49
2018-07-31T02:26:21.562Z,86.04
2018-07-31T02:26:52.671Z,85.32
2018-07-31T02:27:23.840Z,85.53
2018-07-31T02:27:55.085Z,85.86
2018-07-31T02:28:26.332Z,85.07
2018-07-31T02:28:57.492Z,85.57
2018-07-31T02:29:28.656Z,85.02
2018-07-31T02:29:59.881Z,85.17
2018-07-31T02:30:31.113Z,84.54
2018-07-31T02:31:02.367Z,84.49
2018-07-31T02:31:33.541Z,84.25
2018-07-31T02:32:04.778Z,84.74
2018-07-31T02:32:35.914Z,84.57
2018-07-31T02:33:07.067Z,84.47
2018-07-31T02:33:38.185Z,84.55
2018-07-31T02:34:09.297Z,84.85
2018-07-31T02:34:40.531Z,84.82
2018-07-31T02:35:11.664Z,85.49
2018-07-31T02:35:42.893Z,85.60
2018-07-31T02:36:14.175Z,85.40
2018-07-31T02:36:45.336Z,85.41
2018-07-31T02:37:16.600Z,86.40
2018-07-31T02:37:47.730Z,86.46
2018-07-31T02:38:18.941Z,85.15
2018-07-31T02:38:50.191Z,85.61
2018-07-31T02:39:21.320Z,85.51
2018-07-31T02:39:52.492Z,86.09
2018-07-31T02:40:23.616Z,86.62
2018-07-31T02:40:54.732Z,86.66
2018-07-31T02:41:25.962Z,86.52
2018-07-31T02:41:57.087Z,86.50
2018-07-31T02:42:28.317Z,86.91
2018-07-31T02:42:59.450Z,87.39
2018-07-31T02:43:30.662Z,87.33
2018-07-31T02:44:01.947Z,87.46
2018-07-31T02:44:33.060Z,86.39
2018-07-31T02:45:04.173Z,86.50
2018-07-31T02:45:35.288Z,86.57
2018-07-31T02:46:06.401Z,87.42
2018-07-31T02:46:37.578Z,86.81
2018-07-31T02:47:08.696Z,87.31
2018-07-31T02:47:39.805Z,87.59
2018-07-31T02:48:10.922Z,87.49
2018-07-31T02:48:42.221Z,86.99
2018-07-31T02:49:13.344Z,87.07
2018-07-31T02:49:44.464Z,87.90
2018-07-31T02:50:15.598Z,87.38
2018-07-31T02:50:46.907Z,87.64
2018-07-31T02:51:18.039Z,86.85
2018-07-31T02:51:49.211Z,87.08
2018-07-31T02:52:20.328Z,87.11
2018-07-31T02:52:51.505Z,86.91
2018-07-31T02:53:22.634Z,86.88
2018-07-31T02:53:53.743Z,86.89
2018-07-31T02:54:24.946Z,86.90
2018-07-31T02:54:56.133Z,87.63
2018-07-31T02:55:27.248Z,87.79
2018-07-31T02:55:58.424Z,87.80
2018-07-31T02:56:29.536Z,87.17
2018-07-31T02:57:00.717Z,87.36
2018-07-31T02:57:31.837Z,86.51
2018-07-31T02:58:02.998Z,87.28
2018-07-31T02:58:34.097Z,86.58
2018-07-31T02:59:05.316Z,86.31
2018-07-31T02:59:36.490Z,86.73
2018-07-31T03:00:07.679Z,86.17
2018-07-31T03:00:38.864Z,86.85
2018-07-31T03:01:09.984Z,86.46
2018-07-31T03:01:41.183Z,86.63
2018-07-31T03:02:12.471Z,86.69
2018-07-31T03:02:43.596Z,87.19
2018-07-31T03:03:14.762Z,86.96
2018-07-31T03:03:45.875Z,87.52
2018-07-31T03:04:17.086Z,87.24
2018-07-31T03:04:48.271Z,86.63
2018-07-31T03:05:19.384Z,86.35
2018-07-31T03:05:50.626Z,87.23
2018-07-31T03:06:21.857Z,86.85
2018-07-31T03:06:53.049Z,87.22
2018-07-31T03:07:24.277Z,87.19
2018-07-31T03:07:55.461Z,86.31
2018-07-31T03:08:26.707Z,86.08
2018-07-31T03:08:57.849Z,86.98
2018-07-31T03:09:29.021Z,86.26
2018-07-31T03:10:00.191Z,87.01
2018-07-31T03:10:31.371Z,86.35
2018-07-31T03:11:02.601Z,86.63
2018-07-31T03:11:33.834Z,87.69
2018-07-31T03:12:04.956Z,87.79
2018-07-31T03:12:36.060Z,88.00
2018-07-31T03:13:07.232Z,88.00
2018-07-31T03:13:38.402Z,88.18
2018-07-31T03:14:09.584Z,87.75
2018-07-31T03:14:40.700Z,87.77
2018-07-31T03:15:11.817Z,87.60
2018-07-31T03:15:42.934Z,88.06
2018-07-31T03:16:14.093Z,87.76
2018-07-31T03:16:45.232Z,87.78
2018-07-31T03:17:16.580Z,88.53
2018-07-31T03:17:47.765Z,88.09
2018-07-31T03:18:19.124Z,89.14
2018-07-31T03:18:50.349Z,88.86
2018-07-31T03:19:21.521Z,88.09
2018-07-31T03:19:52.662Z,88.01
2018-07-31T03:20:23.836Z,88.61
2018-07-31T03:20:54.991Z,88.44
2018-07-31T03:21:26.156Z,88.32
2018-07-31T03:21:57.292Z,87.60
2018-07-31T03:22:28.461Z,88.79
2018-07-31T03:22:59.669Z,88.14
2018-07-31T03:23:30.801Z,88.34
2018-07-31T03:24:01.912Z,87.71
2018-07-31T03:24:33.030Z,88.30
2018-07-31T03:25:04.167Z,87.98
2018-07-31T03:25:35.273Z,88.14
2018-07-31T03:26:06.428Z,87.54
2018-07-31T03:26:37.542Z,88.10
2018-07-31T03:27:08.743Z,87.98
2018-07-31T03:27:39.924Z,87.75
2018-07-31T03:28:11.200Z,88.48
2018-07-31T03:28:42.432Z,88.66
2018-07-31T03:29:13.548Z,88.28
2018-07-31T03:29:44.716Z,88.36
2018-07-31T03:30:16.025Z,88.09
2018-07-31T03:30:47.158Z,88.28
2018-07-31T03:31:18.307Z,88.19
2018-07-31T03:31:49.537Z,88.25
2018-07-31T03:32:20.817Z,89.01
2018-07-31T03:32:52.006Z,88.03
2018-07-31T03:33:23.114Z,89.02
2018-07-31T03:33:54.294Z,88.82
2018-07-31T03:34:25.455Z,89.05
2018-07-31T03:34:56.649Z,88.29
2018-07-31T03:35:27.767Z,88.43
2018-07-31T03:35:58.932Z,88.45
2018-07-31T03:36:30.039Z,88.41
2018-07-31T03:37:01.199Z,89.08
2018-07-31T03:37:32.328Z,88.90
2018-07-31T03:38:03.544Z,89.05
2018-07-31T03:38:34.727Z,89.05
2018-07-31T03:39:05.915Z,88.34
2018-07-31T03:39:37.022Z,89.07
2018-07-31T03:40:08.199Z,89.10
2018-07-31T03:40:39.421Z,88.37
2018-07-31T03:41:10.615Z,88.07
2018-07-31T03:41:41.833Z,88.67
2018-07-31T03:42:13.072Z,88.18
2018-07-31T03:42:44.251Z,88.89
2018-07-31T03:43:15.375Z,88.79
2018-07-31T03:43:46.558Z,88.29
2018-07-31T03:44:17.669Z,88.57
2018-07-31T03:44:48.785Z,88.63
2018-07-31T03:45:20.005Z,88.20
2018-07-31T03:45:51.128Z,87.85
2018-07-31T03:46:22.357Z,88.62
2018-07-31T03:46:53.546Z,88.39
2018-07-31T03:47:24.692Z,88.20
2018-07-31T03:47:55.808Z,88.32
2018-07-31T03:48:26.919Z,88.12
2018-07-31T03:48:58.057Z,88.45
2018-07-31T03:49:29.342Z,87.94
2018-07-31T03:50:00.526Z,88.47
2018-07-31T03:50:31.728Z,88.58
2018-07-31T03:51:02.963Z,88.44
2018-07-31T03:51:34.115Z,88.48
2018-07-31T03:52:05.224Z,89.34
2018-07-31T03:52:36.444Z,88.75
2018-07-31T03:53:07.645Z,89.42
2018-07-31T03:53:38.817Z,89.48
2018-07-31T03:54:09.995Z,89.55
2018-07-31T03:54:41.225Z,88.89
2018-07-31T03:55:12.404Z,88.88
2018-07-31T03:55:43.524Z,89.62
2018-07-31T03:56:14.659Z,89.57
2018-07-31T03:56:45.785Z,88.78
2018-07-31T03:57:16.952Z,88.90
2018-07-31T03:57:48.180Z,88.88
2018-07-31T03:58:19.360Z,89.22
2018-07-31T03:58:50.523Z,88.54
2018-07-31T03:59:21.694Z,88.65
2018-07-31T03:59:52.820Z,89.16
2018-07-31T04:00:23.984Z,89.12
2018-07-31T04:00:55.192Z,88.90
2018-07-31T04:01:26.318Z,88.30
2018-07-31T04:01:58.262Z,88.96
2018-07-31T04:02:29.474Z,88.06
2018-07-31T04:03:00.598Z,88.15
2018-07-31T04:03:31.800Z,88.17
2018-07-31T04:04:02.977Z,88.14
2018-07-31T04:04:34.089Z,88.76
2018-07-31T04:05:05.246Z,87.83
2018-07-31T04:05:36.590Z,87.71
2018-07-31T04:06:07.833Z,88.48
2018-07-31T04:06:38.963Z,87.74
2018-07-31T04:07:10.394Z,88.59
2018-07-31T04:07:41.665Z,88.08
2018-07-31T04:08:12.799Z,88.10
2018-07-31T04:08:43.919Z,88.39
2018-07-31T04:09:15.097Z,87.75
2018-07-31T04:09:46.318Z,87.13
2018-07-31T04:10:17.439Z,87.36
2018-07-31T04:10:48.565Z,87.26
2018-07-31T04:11:19.687Z,87.90
2018-07-31T04:11:50.804Z,87.89
2018-07-31T04:12:21.927Z,87.56
2018-07-31T04:12:53.128Z,87.21
2018-07-31T04:13:24.329Z,86.87
2018-07-31T04:13:55.448Z,87.51
2018-07-31T04:14:26.620Z,87.49
2018-07-31T04:14:57.843Z,86.96
2018-07-31T04:15:29.074Z,87.29
2018-07-31T04:16:00.283Z,87.46
2018-07-31T04:16:31.398Z,87.49
2018-07-31T04:17:02.645Z,87.18
2018-07-31T04:17:33.838Z,86.79
2018-07-31T04:18:04.959Z,86.38
2018-07-31T04:18:36.154Z,87.08
2018-07-31T04:19:07.356Z,86.92
2018-07-31T04:19:38.499Z,87.26
2018-07-31T04:20:09.745Z,87.34
2018-07-31T04:20:40.926Z,86.71
2018-07-31T04:21:12.144Z,87.08
2018-07-31T04:21:43.316Z,86.98
2018-07-31T04:22:14.464Z,87.04
2018-07-31T04:22:45.571Z,86.39
2018-07-31T04:23:16.731Z,86.14
2018-07-31T04:23:47.864Z,86.41
2018-07-31T04:24:19.086Z,86.51
2018-07-31T04:24:50.207Z,86.14
2018-07-31T04:25:21.315Z,86.19
2018-07-31T04:25:52.497Z,86.16
2018-07-31T04:26:23.704Z,85.84
2018-07-31T04:26:54.904Z,86.80
2018-07-31T04:27:26.081Z,86.19
2018-07-31T04:27:57.253Z,85.95
2018-07-31T04:28:28.379Z,86.00
2018-07-31T04:28:59.495Z,86.71
2018-07-31T04:29:30.616Z,86.37
2018-07-31T04:30:01.832Z,85.96
2018-07-31T04:30:32.867Z,85.71
2018-07-31T04:31:04.101Z,86.01
2018-07-31T04:31:35.282Z,85.73
2018-07-31T04:32:06.511Z,84.72
2018-07-31T04:32:37.625Z,85.79
2018-07-31T04:33:08.785Z,85.84
2018-07-31T04:33:39.972Z,85.08
2018-07-31T04:34:11.120Z,85.98
2018-07-31T04:34:42.341Z,85.24
2018-07-31T04:35:13.466Z,85.93
2018-07-31T04:35:44.651Z,86.12
2018-07-31T04:36:15.851Z,85.88
2018-07-31T04:36:47.020Z,85.29
2018-07-31T04:37:18.260Z,85.82
2018-07-31T04:37:49.483Z,84.72
2018-07-31T04:38:20.603Z,84.84
2018-07-31T04:38:51.879Z,85.73
2018-07-31T04:39:23.154Z,85.14
2018-07-31T04:39:54.324Z,84.96
2018-07-31T04:40:25.443Z,84.45
2018-07-31T04:40:56.613Z,84.70
2018-07-31T04:41:27.719Z,84.75
2018-07-31T04:41:58.958Z,84.23
2018-07-31T04:42:30.194Z,84.22
2018-07-31T04:43:01.473Z,84.55
2018-07-31T04:43:32.670Z,84.61
2018-07-31T04:44:03.880Z,84.01
2018-07-31T04:44:35.009Z,84.10
2018-07-31T04:45:06.125Z,84.10
2018-07-31T04:45:37.359Z,84.92
2018-07-31T04:46:08.503Z,85.09
2018-07-31T04:46:39.721Z,84.94
2018-07-31T04:47:10.921Z,84.66
2018-07-31T04:47:42.086Z,85.20
2018-07-31T04:48:13.308Z,84.73
2018-07-31T04:48:44.493Z,85.27
2018-07-31T04:49:15.672Z,85.40
2018-07-31T04:49:46.787Z,85.46
2018-07-31T04:50:17.941Z,85.36
2018-07-31T04:50:49.044Z,85.84
2018-07-31T04:51:20.157Z,85.47
2018-07-31T04:51:51.320Z,86.63
2018-07-31T04:52:22.498Z,86.01
2018-07-31T04:52:53.737Z,85.80
2018-07-31T04:53:24.855Z,86.05
2018-07-31T04:53:56.080Z,86.03
2018-07-31T04:54:27.312Z,86.20
2018-07-31T04:54:58.513Z,86.44
2018-07-31T04:55:29.689Z,85.92
2018-07-31T04:56:00.872Z,85.62
2018-07-31T04:56:32.097Z,85.75
2018-07-31T04:57:03.224Z,86.45
2018-07-31T04:57:34.396Z,86.30
2018-07-31T04:58:05.613Z,85.69
2018-07-31T04:58:36.729Z,85.95
2018-07-31T04:59:07.840Z,86.21
2018-07-31T04:59:38.955Z,86.24
2018-07-31T05:00:10.067Z,86.19
2018-07-31T05:00:41.263Z,86.54
2018-07-31T05:01:12.491Z,87.37
2018-07-31T05:01:43.728Z,86.77
2018-07-31T05:02:14.907Z,87.44
2018-07-31T05:02:46.044Z,85.98
2018-07-31T05:03:17.253Z,85.45
2018-07-31T05:03:48.401Z,85.39
2018-07-31T05:04:19.620Z,86.09
2018-07-31T05:04:50.837Z,86.97
2018-07-31T05:05:22.022Z,86.50
2018-07-31T05:05:53.155Z,86.81
2018-07-31T05:06:24.265Z,87.76
2018-07-31T05:06:55.443Z,87.08
2018-07-31T05:07:26.601Z,86.45
2018-07-31T05:07:57.859Z,86.08
2018-07-31T05:08:29.039Z,87.31
2018-07-31T05:09:00.153Z,86.81
2018-07-31T05:09:31.530Z,86.78
2018-07-31T05:10:02.768Z,86.74
2018-07-31T05:10:33.913Z,87.90
2018-07-31T05:11:05.114Z,88.35
2018-07-31T05:11:36.254Z,87.81
2018-07-31T05:12:07.367Z,87.99
2018-07-31T05:12:38.537Z,87.85
2018-07-31T05:13:09.726Z,86.40
2018-07-31T05:13:40.903Z,87.08
2018-07-31T05:14:12.023Z,88.07
2018-07-31T05:14:43.337Z,88.33
2018-07-31T05:15:14.600Z,88.56
2018-07-31T05:15:45.855Z,88.35
2018-07-31T05:16:17.039Z,88.72
2018-07-31T05:16:48.179Z,87.17
2018-07-31T05:17:19.329Z,87.71
2018-07-31T05:17:50.516Z,86.88
2018-07-31T05:18:21.745Z,86.13
2018-07-31T05:18:52.913Z,86.37
2018-07-31T05:19:24.395Z,86.59
2018-07-31T05:19:55.628Z,86.75
2018-07-31T05:20:26.817Z,87.10
2018-07-31T05:20:57.948Z,87.07
2018-07-31T05:21:29.167Z,86.74
2018-07-31T05:22:00.545Z,86.43
2018-07-31T05:22:31.760Z,85.96
2018-07-31T05:23:02.877Z,85.73
2018-07-31T05:23:34.244Z,86.52
2018-07-31T05:24:05.368Z,85.53
2018-07-31T05:24:36.661Z,86.33
2018-07-31T05:25:07.781Z,86.74
2018-07-31T05:25:38.989Z,86.57
2018-07-31T05:26:10.161Z,86.31
2018-07-31T05:26:41.391Z,86.20
2018-07-31T05:27:12.610Z,85.75
2018-07-31T05:27:43.727Z,86.52
2018-07-31T05:28:14.910Z,85.70
2018-07-31T05:28:46.037Z,85.28
2018-07-31T05:29:17.208Z,85.71
2018-07-31T05:29:48.328Z,85.55
2018-07-31T05:30:19.548Z,84.85
2018-07-31T05:30:50.695Z,84.15
2018-07-31T05:31:21.881Z,83.99
2018-07-31T05:31:53.185Z,84.62
2018-07-31T05:32:24.321Z,83.61
2018-07-31T05:32:55.599Z,84.68
2018-07-31T05:33:26.768Z,84.70
2018-07-31T05:33:58.011Z,84.12
2018-07-31T05:34:29.147Z,85.14
2018-07-31T05:35:00.321Z,85.18
2018-07-31T05:35:31.451Z,84.50
2018-07-31T05:36:02.613Z,85.14
2018-07-31T05:36:33.740Z,84.54
2018-07-31T05:37:04.988Z,82.82
2018-07-31T05:37:36.165Z,83.38
2018-07-31T05:38:07.288Z,84.29
2018-07-31T05:38:38.525Z,84.05
2018-07-31T05:39:09.753Z,84.78
2018-07-31T05:39:40.882Z,83.96
2018-07-31T05:40:11.995Z,84.09
2018-07-31T05:40:43.120Z,83.53
2018-07-31T05:41:14.334Z,84.32
2018-07-31T05:41:45.450Z,84.38
2018-07-31T05:42:16.625Z,84.61
2018-07-31T05:42:47.750Z,83.77
2018-07-31T05:43:18.980Z,83.16
2018-07-31T05:43:50.114Z,83.43
2018-07-31T05:44:21.298Z,83.98
2018-07-31T05:44:52.479Z,84.36
2018-07-31T05:45:23.608Z,83.24
2018-07-31T05:45:54.741Z,82.95
2018-07-31T05:46:25.908Z,83.02
2018-07-31T05:46:57.027Z,82.79
2018-07-31T05:47:28.223Z,83.54
2018-07-31T05:47:59.352Z,83.43
2018-07-31T05:48:30.575Z,83.23
2018-07-31T05:49:01.693Z,83.24
2018-07-31T05:49:32.826Z,82.42
2018-07-31T05:50:03.956Z,81.74
2018-07-31T05:50:35.136Z,81.66
2018-07-31T05:51:06.316Z,82.50
2018-07-31T05:51:37.437Z,81.85
2018-07-31T05:52:08.624Z,81.12
2018-07-31T05:52:39.857Z,82.12
2018-07-31T05:53:11.085Z,81.39
2018-07-31T05:53:42.266Z,80.94
2018-07-31T05:54:13.441Z,81.66
2018-07-31T05:54:44.623Z,81.90
2018-07-31T05:55:15.838Z,83.35
2018-07-31T05:55:47.011Z,81.71
2018-07-31T05:56:18.141Z,81.17
2018-07-31T05:56:49.272Z,82.03
2018-07-31T05:57:20.537Z,82.17
2018-07-31T05:57:51.889Z,81.80
2018-07-31T05:58:23.066Z,80.20
2018-07-31T05:58:54.189Z,80.79
2018-07-31T05:59:25.359Z,80.71
2018-07-31T05:59:56.709Z,80.53
2018-07-31T06:00:27.884Z,80.05
2018-07-31T06:00:58.993Z,80.01
2018-07-31T06:01:30.124Z,80.36
2018-07-31T06:02:01.370Z,80.14
2018-07-31T06:02:32.512Z,80.92
2018-07-31T06:03:03.641Z,80.32
2018-07-31T06:03:34.832Z,79.31
2018-07-31T06:04:05.976Z,80.66
2018-07-31T06:04:37.174Z,79.82
2018-07-31T06:05:08.350Z,80.84
2018-07-31T06:05:39.633Z,80.00
2018-07-31T06:06:10.771Z,79.09
2018-07-31T06:06:41.897Z,79.62
2018-07-31T06:07:13.148Z,79.27
2018-07-31T06:07:44.524Z,79.95
2018-07-31T06:08:15.699Z,80.45
2018-07-31T06:08:46.921Z,80.52
2018-07-31T06:09:18.151Z,81.10
2018-07-31T06:09:49.334Z,80.33
2018-07-31T06:10:20.458Z,79.85
2018-07-31T06:10:51.684Z,80.66
2018-07-31T06:11:22.878Z,80.07
2018-07-31T06:11:54.094Z,80.86
2018-07-31T06:12:25.284Z,77.94
2018-07-31T06:12:56.409Z,78.94
2018-07-31T06:13:27.540Z,78.77
2018-07-31T06:13:58.660Z,79.30
2018-07-31T06:14:29.841Z,76.40
2018-07-31T06:15:01.101Z,75.09
2018-07-31T06:15:32.223Z,75.38
2018-07-31T06:16:03.433Z,76.47
2018-07-31T06:16:34.571Z,77.02
2018-07-31T06:17:05.701Z,77.08
2018-07-31T06:17:36.912Z,77.58
2018-07-31T06:18:08.097Z,77.34
2018-07-31T06:18:39.300Z,75.70
2018-07-31T06:19:10.617Z,76.38
2018-07-31T06:19:41.849Z,75.82
2018-07-31T06:20:12.980Z,76.73
2018-07-31T06:20:44.168Z,76.44
2018-07-31T06:21:15.287Z,77.57
2018-07-31T06:21:46.401Z,77.75
2018-07-31T06:22:17.575Z,77.47
2018-07-31T06:22:48.700Z,77.21
2018-07-31T06:23:19.872Z,77.78
2018-07-31T06:23:51.061Z,77.73
2018-07-31T06:24:22.300Z,75.17
2018-07-31T06:24:53.420Z,76.12
2018-07-31T06:25:24.646Z,76.60
2018-07-31T06:25:55.874Z,76.47
2018-07-31T06:26:27.068Z,76.50
2018-07-31T06:26:58.210Z,77.37
2018-07-31T06:27:29.421Z,76.95
2018-07-31T06:28:00.629Z,77.79
2018-07-31T06:28:31.845Z,76.87
2018-07-31T06:29:03.071Z,76.50
2018-07-31T06:29:34.299Z,75.97
2018-07-31T06:30:05.526Z,75.16
2018-07-31T06:30:36.678Z,75.12
2018-07-31T06:31:07.812Z,75.44
2018-07-31T06:31:38.994Z,75.36
2018-07-31T06:32:10.188Z,73.13
2018-07-31T06:32:41.379Z,73.29
2018-07-31T06:33:12.497Z,73.89
2018-07-31T06:33:43.621Z,74.61
2018-07-31T06:34:14.736Z,73.75
2018-07-31T06:34:45.973Z,72.74
2018-07-31T06:35:17.259Z,73.92
2018-07-31T06:35:48.392Z,75.12
2018-07-31T06:36:19.568Z,73.82
2018-07-31T06:36:50.693Z,72.62
2018-07-31T06:37:21.866Z,72.59
2018-07-31T06:37:53.144Z,73.19
2018-07-31T06:38:24.296Z,72.68
2018-07-31T06:38:55.545Z,74.76
2018-07-31T06:39:26.716Z,73.08
2018-07-31T06:39:57.836Z,74.41
2018-07-31T06:40:29.080Z,75.98
2018-07-31T06:41:00.333Z,74.76
2018-07-31T06:41:31.464Z,74.42